sensor_id;sensor_type;location;lat;lon;timestamp;P1;durP1;ratioP1;P2;durP2;ratioP2
54929;SDS011;40833;53.238;6.576;2024-03-08T00:01:41;56.47;;;28.23;;
54929;SDS011;40833;53.238;6.576;2024-03-08T00:04:07;61.20;;;30.33;;
54929;SDS011;40833;53.238;6.576;2024-03-08T00:06:33;62.37;;;30.60;;
54929;SDS011;40833;53.238;6.576;2024-03-08T00:08:59;57.60;;;32.17;;
54929;SDS011;40833;53.238;6.576;2024-03-08T00:11:25;63.53;;;32.17;;
54929;SDS011;40833;53.238;6.576;2024-03-08T00:13:51;64.03;;;32.37;;
54929;SDS011;40833;53.238;6.576;2024-03-08T00:16:18;62.87;;;31.07;;
54929;SDS011;40833;53.238;6.576;2024-03-08T00:18:48;67.77;;;31.87;;
54929;SDS011;40833;53.238;6.576;2024-03-08T00:21:14;59.57;;;30.77;;
54929;SDS011;40833;53.238;6.576;2024-03-08T00:23:40;63.83;;;30.60;;
54929;SDS011;40833;53.238;6.576;2024-03-08T00:26:06;63.10;;;31.00;;
54929;SDS011;40833;53.238;6.576;2024-03-08T00:28:32;61.93;;;31.93;;
54929;SDS011;40833;53.238;6.576;2024-03-08T00:30:59;67.10;;;33.47;;
54929;SDS011;40833;53.238;6.576;2024-03-08T00:33:25;66.00;;;32.03;;
54929;SDS011;40833;53.238;6.576;2024-03-08T00:35:52;69.37;;;33.10;;
54929;SDS011;40833;53.238;6.576;2024-03-08T00:38:19;65.23;;;31.07;;
54929;SDS011;40833;53.238;6.576;2024-03-08T00:40:44;64.50;;;31.97;;
54929;SDS011;40833;53.238;6.576;2024-03-08T00:43:10;61.87;;;31.57;;
54929;SDS011;40833;53.238;6.576;2024-03-08T00:45:36;71.33;;;33.47;;
54929;SDS011;40833;53.238;6.576;2024-03-08T00:48:02;62.47;;;31.40;;
54929;SDS011;40833;53.238;6.576;2024-03-08T00:50:29;70.37;;;32.50;;
54929;SDS011;40833;53.238;6.576;2024-03-08T00:52:55;68.80;;;33.57;;
54929;SDS011;40833;53.238;6.576;2024-03-08T00:55:21;67.73;;;32.90;;
54929;SDS011;40833;53.238;6.576;2024-03-08T00:57:47;64.67;;;31.40;;
54929;SDS011;40833;53.238;6.576;2024-03-08T01:00:12;66.27;;;32.03;;
54929;SDS011;40833;53.238;6.576;2024-03-08T01:02:39;68.87;;;32.40;;
54929;SDS011;40833;53.238;6.576;2024-03-08T01:05:05;66.17;;;32.13;;
54929;SDS011;40833;53.238;6.576;2024-03-08T01:07:33;62.37;;;32.07;;
54929;SDS011;40833;53.238;6.576;2024-03-08T01:10:02;64.87;;;30.77;;
54929;SDS011;40833;53.238;6.576;2024-03-08T01:12:28;65.27;;;32.10;;
54929;SDS011;40833;53.238;6.576;2024-03-08T01:14:55;66.53;;;32.67;;
54929;SDS011;40833;53.238;6.576;2024-03-08T01:17:21;69.53;;;34.40;;
54929;SDS011;40833;53.238;6.576;2024-03-08T01:19:46;65.23;;;32.90;;
54929;SDS011;40833;53.238;6.576;2024-03-08T01:22:12;65.93;;;30.03;;
54929;SDS011;40833;53.238;6.576;2024-03-08T01:24:38;63.50;;;31.53;;
54929;SDS011;40833;53.238;6.576;2024-03-08T01:27:04;65.17;;;30.27;;
54929;SDS011;40833;53.238;6.576;2024-03-08T01:29:29;68.00;;;32.33;;
54929;SDS011;40833;53.238;6.576;2024-03-08T01:31:55;67.63;;;31.57;;
54929;SDS011;40833;53.238;6.576;2024-03-08T01:34:21;62.30;;;31.40;;
54929;SDS011;40833;53.238;6.576;2024-03-08T01:36:50;63.50;;;28.73;;
54929;SDS011;40833;53.238;6.576;2024-03-08T01:39:16;72.03;;;32.77;;
54929;SDS011;40833;53.238;6.576;2024-03-08T01:41:42;60.50;;;30.23;;
54929;SDS011;40833;53.238;6.576;2024-03-08T01:44:07;58.97;;;30.47;;
54929;SDS011;40833;53.238;6.576;2024-03-08T01:46:34;61.80;;;29.63;;
54929;SDS011;40833;53.238;6.576;2024-03-08T01:49:00;59.30;;;30.10;;
54929;SDS011;40833;53.238;6.576;2024-03-08T01:51:27;52.63;;;27.00;;
54929;SDS011;40833;53.238;6.576;2024-03-08T01:53:54;64.80;;;30.50;;
54929;SDS011;40833;53.238;6.576;2024-03-08T01:56:23;65.00;;;32.07;;
54929;SDS011;40833;53.238;6.576;2024-03-08T01:58:50;62.33;;;31.60;;
54929;SDS011;40833;53.238;6.576;2024-03-08T02:01:16;59.43;;;29.07;;
54929;SDS011;40833;53.238;6.576;2024-03-08T02:03:44;58.10;;;31.67;;
54929;SDS011;40833;53.238;6.576;2024-03-08T02:06:12;61.17;;;31.13;;
54929;SDS011;40833;53.238;6.576;2024-03-08T02:08:39;67.10;;;30.10;;
54929;SDS011;40833;53.238;6.576;2024-03-08T02:11:08;63.70;;;29.80;;
54929;SDS011;40833;53.238;6.576;2024-03-08T02:13:34;59.70;;;30.20;;
54929;SDS011;40833;53.238;6.576;2024-03-08T02:16:00;61.43;;;29.93;;
54929;SDS011;40833;53.238;6.576;2024-03-08T02:18:26;61.17;;;29.37;;
54929;SDS011;40833;53.238;6.576;2024-03-08T02:20:57;65.40;;;29.77;;
54929;SDS011;40833;53.238;6.576;2024-03-08T02:23:24;61.27;;;29.23;;
54929;SDS011;40833;53.238;6.576;2024-03-08T02:25:51;62.37;;;29.33;;
54929;SDS011;40833;53.238;6.576;2024-03-08T02:28:18;58.40;;;27.83;;
54929;SDS011;40833;53.238;6.576;2024-03-08T02:30:45;59.30;;;29.00;;
54929;SDS011;40833;53.238;6.576;2024-03-08T02:33:15;56.67;;;28.87;;
54929;SDS011;40833;53.238;6.576;2024-03-08T02:35:43;59.37;;;28.10;;
54929;SDS011;40833;53.238;6.576;2024-03-08T02:38:12;53.50;;;27.13;;
54929;SDS011;40833;53.238;6.576;2024-03-08T02:40:42;52.07;;;27.53;;
54929;SDS011;40833;53.238;6.576;2024-03-08T02:43:08;51.40;;;27.77;;
54929;SDS011;40833;53.238;6.576;2024-03-08T02:45:34;55.63;;;26.93;;
54929;SDS011;40833;53.238;6.576;2024-03-08T02:48:00;53.23;;;27.03;;
54929;SDS011;40833;53.238;6.576;2024-03-08T02:50:26;55.27;;;25.87;;
54929;SDS011;40833;53.238;6.576;2024-03-08T02:52:52;58.57;;;27.40;;
54929;SDS011;40833;53.238;6.576;2024-03-08T02:55:18;52.43;;;26.77;;
54929;SDS011;40833;53.238;6.576;2024-03-08T02:57:45;54.00;;;26.67;;
54929;SDS011;40833;53.238;6.576;2024-03-08T03:00:12;58.43;;;27.10;;
54929;SDS011;40833;53.238;6.576;2024-03-08T03:02:38;61.23;;;27.43;;
54929;SDS011;40833;53.238;6.576;2024-03-08T03:05:05;50.70;;;25.97;;
54929;SDS011;40833;53.238;6.576;2024-03-08T03:07:32;50.30;;;25.13;;
54929;SDS011;40833;53.238;6.576;2024-03-08T03:09:58;52.80;;;27.10;;
54929;SDS011;40833;53.238;6.576;2024-03-08T03:12:26;55.37;;;26.57;;
54929;SDS011;40833;53.238;6.576;2024-03-08T03:14:52;49.10;;;26.30;;
54929;SDS011;40833;53.238;6.576;2024-03-08T03:17:18;49.97;;;25.60;;
54929;SDS011;40833;53.238;6.576;2024-03-08T03:19:45;51.23;;;25.83;;
54929;SDS011;40833;53.238;6.576;2024-03-08T03:22:11;51.77;;;25.47;;
54929;SDS011;40833;53.238;6.576;2024-03-08T03:24:37;53.07;;;26.47;;
54929;SDS011;40833;53.238;6.576;2024-03-08T03:27:04;51.63;;;26.63;;
54929;SDS011;40833;53.238;6.576;2024-03-08T03:29:36;52.00;;;27.23;;
54929;SDS011;40833;53.238;6.576;2024-03-08T03:32:07;46.77;;;25.00;;
54929;SDS011;40833;53.238;6.576;2024-03-08T03:34:34;45.93;;;24.30;;
54929;SDS011;40833;53.238;6.576;2024-03-08T03:37:02;43.50;;;23.20;;
54929;SDS011;40833;53.238;6.576;2024-03-08T03:39:29;50.80;;;25.77;;
54929;SDS011;40833;53.238;6.576;2024-03-08T03:41:57;46.27;;;23.10;;
54929;SDS011;40833;53.238;6.576;2024-03-08T03:44:24;50.23;;;24.57;;
54929;SDS011;40833;53.238;6.576;2024-03-08T03:46:50;47.70;;;25.10;;
54929;SDS011;40833;53.238;6.576;2024-03-08T03:49:16;49.43;;;25.20;;
54929;SDS011;40833;53.238;6.576;2024-03-08T03:51:42;51.10;;;26.17;;
54929;SDS011;40833;53.238;6.576;2024-03-08T03:54:09;49.00;;;25.33;;
54929;SDS011;40833;53.238;6.576;2024-03-08T03:56:35;50.80;;;24.30;;
54929;SDS011;40833;53.238;6.576;2024-03-08T03:59:01;47.60;;;25.27;;
54929;SDS011;40833;53.238;6.576;2024-03-08T04:01:27;48.60;;;25.20;;
54929;SDS011;40833;53.238;6.576;2024-03-08T04:03:53;44.27;;;24.27;;
54929;SDS011;40833;53.238;6.576;2024-03-08T04:06:19;46.87;;;25.33;;
54929;SDS011;40833;53.238;6.576;2024-03-08T04:08:45;50.93;;;25.80;;
54929;SDS011;40833;53.238;6.576;2024-03-08T04:11:11;47.77;;;24.80;;
54929;SDS011;40833;53.238;6.576;2024-03-08T04:13:37;50.13;;;25.10;;
54929;SDS011;40833;53.238;6.576;2024-03-08T04:16:02;44.50;;;23.83;;
54929;SDS011;40833;53.238;6.576;2024-03-08T04:18:33;50.93;;;25.20;;
54929;SDS011;40833;53.238;6.576;2024-03-08T04:21:01;47.37;;;25.20;;
54929;SDS011;40833;53.238;6.576;2024-03-08T04:23:27;51.20;;;25.17;;
54929;SDS011;40833;53.238;6.576;2024-03-08T04:25:53;48.47;;;23.63;;
54929;SDS011;40833;53.238;6.576;2024-03-08T04:28:19;51.13;;;24.40;;
54929;SDS011;40833;53.238;6.576;2024-03-08T04:30:45;46.93;;;24.07;;
54929;SDS011;40833;53.238;6.576;2024-03-08T04:33:11;52.40;;;24.83;;
54929;SDS011;40833;53.238;6.576;2024-03-08T04:35:37;51.00;;;24.43;;
54929;SDS011;40833;53.238;6.576;2024-03-08T04:38:02;47.07;;;24.40;;
54929;SDS011;40833;53.238;6.576;2024-03-08T04:40:30;48.47;;;24.73;;
54929;SDS011;40833;53.238;6.576;2024-03-08T04:42:56;48.37;;;24.03;;
54929;SDS011;40833;53.238;6.576;2024-03-08T04:45:24;48.40;;;22.97;;
54929;SDS011;40833;53.238;6.576;2024-03-08T04:47:51;43.90;;;24.23;;
54929;SDS011;40833;53.238;6.576;2024-03-08T04:50:17;44.13;;;23.33;;
54929;SDS011;40833;53.238;6.576;2024-03-08T04:52:43;48.00;;;23.77;;
54929;SDS011;40833;53.238;6.576;2024-03-08T04:55:09;48.00;;;23.07;;
54929;SDS011;40833;53.238;6.576;2024-03-08T04:57:35;50.60;;;23.93;;
54929;SDS011;40833;53.238;6.576;2024-03-08T05:00:02;51.33;;;25.60;;
54929;SDS011;40833;53.238;6.576;2024-03-08T05:02:32;44.55;;;23.85;;
54929;SDS011;40833;53.238;6.576;2024-03-08T05:04:58;48.73;;;23.30;;
54929;SDS011;40833;53.238;6.576;2024-03-08T05:07:24;46.03;;;23.10;;
54929;SDS011;40833;53.238;6.576;2024-03-08T05:09:50;47.77;;;24.07;;
54929;SDS011;40833;53.238;6.576;2024-03-08T05:12:17;47.93;;;24.20;;
54929;SDS011;40833;53.238;6.576;2024-03-08T05:14:45;46.00;;;23.17;;
54929;SDS011;40833;53.238;6.576;2024-03-08T05:17:14;44.37;;;20.60;;
54929;SDS011;40833;53.238;6.576;2024-03-08T05:19:41;51.30;;;23.07;;
54929;SDS011;40833;53.238;6.576;2024-03-08T05:22:07;45.53;;;22.20;;
54929;SDS011;40833;53.238;6.576;2024-03-08T05:24:33;44.47;;;22.27;;
54929;SDS011;40833;53.238;6.576;2024-03-08T05:26:59;47.80;;;23.03;;
54929;SDS011;40833;53.238;6.576;2024-03-08T05:29:25;44.73;;;22.87;;
54929;SDS011;40833;53.238;6.576;2024-03-08T05:31:51;49.00;;;23.70;;
54929;SDS011;40833;53.238;6.576;2024-03-08T05:34:17;47.17;;;23.43;;
54929;SDS011;40833;53.238;6.576;2024-03-08T05:36:44;42.93;;;23.30;;
54929;SDS011;40833;53.238;6.576;2024-03-08T05:39:15;42.63;;;22.30;;
54929;SDS011;40833;53.238;6.576;2024-03-08T05:41:41;48.93;;;22.93;;
54929;SDS011;40833;53.238;6.576;2024-03-08T05:44:08;49.83;;;24.03;;
54929;SDS011;40833;53.238;6.576;2024-03-08T05:46:34;47.97;;;23.80;;
54929;SDS011;40833;53.238;6.576;2024-03-08T05:49:06;52.10;;;23.10;;
54929;SDS011;40833;53.238;6.576;2024-03-08T05:51:35;46.00;;;22.50;;
54929;SDS011;40833;53.238;6.576;2024-03-08T05:54:03;45.83;;;21.47;;
54929;SDS011;40833;53.238;6.576;2024-03-08T05:56:30;40.63;;;21.93;;
54929;SDS011;40833;53.238;6.576;2024-03-08T05:58:57;45.90;;;24.97;;
54929;SDS011;40833;53.238;6.576;2024-03-08T06:01:25;44.27;;;22.70;;
54929;SDS011;40833;53.238;6.576;2024-03-08T06:03:54;49.17;;;23.17;;
54929;SDS011;40833;53.238;6.576;2024-03-08T06:06:24;43.43;;;22.87;;
54929;SDS011;40833;53.238;6.576;2024-03-08T06:08:51;44.97;;;22.53;;
54929;SDS011;40833;53.238;6.576;2024-03-08T06:11:17;45.77;;;23.90;;
54929;SDS011;40833;53.238;6.576;2024-03-08T06:13:44;46.97;;;24.07;;
54929;SDS011;40833;53.238;6.576;2024-03-08T06:16:10;44.73;;;24.00;;
54929;SDS011;40833;53.238;6.576;2024-03-08T06:18:36;42.40;;;21.47;;
54929;SDS011;40833;53.238;6.576;2024-03-08T06:21:03;44.00;;;21.43;;
54929;SDS011;40833;53.238;6.576;2024-03-08T06:23:32;42.20;;;21.77;;
54929;SDS011;40833;53.238;6.576;2024-03-08T06:25:58;40.20;;;21.10;;
54929;SDS011;40833;53.238;6.576;2024-03-08T06:28:24;40.10;;;21.27;;
54929;SDS011;40833;53.238;6.576;2024-03-08T06:30:50;43.87;;;21.57;;
54929;SDS011;40833;53.238;6.576;2024-03-08T06:33:16;44.83;;;21.37;;
54929;SDS011;40833;53.238;6.576;2024-03-08T06:35:43;43.47;;;21.63;;
54929;SDS011;40833;53.238;6.576;2024-03-08T06:38:08;43.07;;;21.47;;
54929;SDS011;40833;53.238;6.576;2024-03-08T06:40:35;45.87;;;21.10;;
54929;SDS011;40833;53.238;6.576;2024-03-08T06:43:00;41.03;;;21.33;;
54929;SDS011;40833;53.238;6.576;2024-03-08T06:45:26;42.40;;;21.00;;
54929;SDS011;40833;53.238;6.576;2024-03-08T06:47:53;44.20;;;21.97;;
54929;SDS011;40833;53.238;6.576;2024-03-08T06:50:19;49.63;;;22.63;;
54929;SDS011;40833;53.238;6.576;2024-03-08T06:52:45;40.87;;;20.23;;
54929;SDS011;40833;53.238;6.576;2024-03-08T06:55:15;48.47;;;22.23;;
54929;SDS011;40833;53.238;6.576;2024-03-08T06:57:42;42.67;;;21.00;;
54929;SDS011;40833;53.238;6.576;2024-03-08T07:00:08;47.83;;;22.33;;
54929;SDS011;40833;53.238;6.576;2024-03-08T07:02:35;41.07;;;21.50;;
54929;SDS011;40833;53.238;6.576;2024-03-08T07:05:01;44.63;;;23.17;;
54929;SDS011;40833;53.238;6.576;2024-03-08T07:07:28;40.90;;;22.57;;
54929;SDS011;40833;53.238;6.576;2024-03-08T07:09:55;52.63;;;24.53;;
54929;SDS011;40833;53.238;6.576;2024-03-08T07:12:21;50.13;;;23.43;;
54929;SDS011;40833;53.238;6.576;2024-03-08T07:14:48;51.00;;;24.03;;
54929;SDS011;40833;53.238;6.576;2024-03-08T07:17:14;50.33;;;23.30;;
54929;SDS011;40833;53.238;6.576;2024-03-08T07:19:41;43.93;;;21.93;;
54929;SDS011;40833;53.238;6.576;2024-03-08T07:22:07;47.47;;;22.00;;
54929;SDS011;40833;53.238;6.576;2024-03-08T07:24:34;49.60;;;22.27;;
54929;SDS011;40833;53.238;6.576;2024-03-08T07:27:19;44.70;;;22.80;;
54929;SDS011;40833;53.238;6.576;2024-03-08T07:29:44;41.87;;;22.33;;
54929;SDS011;40833;53.238;6.576;2024-03-08T07:32:11;43.50;;;22.17;;
54929;SDS011;40833;53.238;6.576;2024-03-08T07:34:50;43.10;;;23.87;;
54929;SDS011;40833;53.238;6.576;2024-03-08T07:37:19;41.07;;;21.90;;
54929;SDS011;40833;53.238;6.576;2024-03-08T07:39:45;41.50;;;22.93;;
54929;SDS011;40833;53.238;6.576;2024-03-08T07:42:11;45.07;;;22.27;;
54929;SDS011;40833;53.238;6.576;2024-03-08T07:44:37;46.40;;;21.80;;
54929;SDS011;40833;53.238;6.576;2024-03-08T07:47:03;38.93;;;21.97;;
54929;SDS011;40833;53.238;6.576;2024-03-08T07:49:29;45.43;;;23.27;;
54929;SDS011;40833;53.238;6.576;2024-03-08T07:51:55;41.07;;;22.37;;
54929;SDS011;40833;53.238;6.576;2024-03-08T07:54:22;37.63;;;22.23;;
54929;SDS011;40833;53.238;6.576;2024-03-08T07:56:48;42.83;;;23.93;;
54929;SDS011;40833;53.238;6.576;2024-03-08T07:59:16;43.47;;;23.00;;
54929;SDS011;40833;53.238;6.576;2024-03-08T08:01:41;49.50;;;24.33;;
54929;SDS011;40833;53.238;6.576;2024-03-08T08:04:09;42.33;;;23.03;;
54929;SDS011;40833;53.238;6.576;2024-03-08T08:06:38;45.03;;;23.47;;
54929;SDS011;40833;53.238;6.576;2024-03-08T08:09:06;42.97;;;23.60;;
54929;SDS011;40833;53.238;6.576;2024-03-08T08:11:39;42.80;;;22.97;;
54929;SDS011;40833;53.238;6.576;2024-03-08T08:14:06;43.40;;;23.50;;
54929;SDS011;40833;53.238;6.576;2024-03-08T08:16:34;38.00;;;20.43;;
54929;SDS011;40833;53.238;6.576;2024-03-08T08:19:02;41.83;;;21.93;;
54929;SDS011;40833;53.238;6.576;2024-03-08T08:21:33;40.80;;;22.77;;
54929;SDS011;40833;53.238;6.576;2024-03-08T08:24:05;41.47;;;24.00;;
54929;SDS011;40833;53.238;6.576;2024-03-08T08:26:31;45.67;;;23.27;;
54929;SDS011;40833;53.238;6.576;2024-03-08T08:28:59;40.67;;;23.27;;
54929;SDS011;40833;53.238;6.576;2024-03-08T08:31:25;39.73;;;23.10;;
54929;SDS011;40833;53.238;6.576;2024-03-08T08:33:51;38.63;;;23.87;;
54929;SDS011;40833;53.238;6.576;2024-03-08T08:36:23;43.92;;;22.85;;
54929;SDS011;40833;53.238;6.576;2024-03-08T08:38:49;41.27;;;22.57;;
54929;SDS011;40833;53.238;6.576;2024-03-08T08:41:15;43.80;;;24.73;;
54929;SDS011;40833;53.238;6.576;2024-03-08T08:43:42;40.23;;;23.83;;
54929;SDS011;40833;53.238;6.576;2024-03-08T08:46:11;42.03;;;22.57;;
54929;SDS011;40833;53.238;6.576;2024-03-08T08:48:39;37.73;;;19.37;;
54929;SDS011;40833;53.238;6.576;2024-03-08T08:51:10;42.07;;;24.67;;
54929;SDS011;40833;53.238;6.576;2024-03-08T08:53:42;38.43;;;20.43;;
54929;SDS011;40833;53.238;6.576;2024-03-08T08:56:17;39.00;;;22.83;;
54929;SDS011;40833;53.238;6.576;2024-03-08T08:58:44;38.13;;;20.93;;
54929;SDS011;40833;53.238;6.576;2024-03-08T09:01:10;37.83;;;22.63;;
54929;SDS011;40833;53.238;6.576;2024-03-08T09:03:36;38.40;;;19.77;;
54929;SDS011;40833;53.238;6.576;2024-03-08T09:06:06;38.37;;;21.30;;
54929;SDS011;40833;53.238;6.576;2024-03-08T09:08:37;33.80;;;22.20;;
54929;SDS011;40833;53.238;6.576;2024-03-08T09:11:03;39.50;;;21.80;;
54929;SDS011;40833;53.238;6.576;2024-03-08T09:13:30;39.93;;;20.57;;
54929;SDS011;40833;53.238;6.576;2024-03-08T09:15:56;38.13;;;23.07;;
54929;SDS011;40833;53.238;6.576;2024-03-08T09:18:22;39.70;;;22.97;;
54929;SDS011;40833;53.238;6.576;2024-03-08T09:20:49;41.23;;;21.60;;
54929;SDS011;40833;53.238;6.576;2024-03-08T09:23:15;34.97;;;21.53;;
54929;SDS011;40833;53.238;6.576;2024-03-08T09:25:42;43.37;;;22.47;;
54929;SDS011;40833;53.238;6.576;2024-03-08T09:28:08;40.23;;;22.90;;
54929;SDS011;40833;53.238;6.576;2024-03-08T09:30:37;40.33;;;22.73;;
54929;SDS011;40833;53.238;6.576;2024-03-08T09:33:03;37.33;;;22.63;;
54929;SDS011;40833;53.238;6.576;2024-03-08T09:35:30;40.57;;;24.40;;
54929;SDS011;40833;53.238;6.576;2024-03-08T09:37:56;37.43;;;21.90;;
54929;SDS011;40833;53.238;6.576;2024-03-08T09:40:22;38.30;;;23.13;;
54929;SDS011;40833;53.238;6.576;2024-03-08T09:42:50;36.47;;;23.57;;
54929;SDS011;40833;53.238;6.576;2024-03-08T09:45:17;38.93;;;23.33;;
54929;SDS011;40833;53.238;6.576;2024-03-08T09:47:47;37.90;;;23.73;;
54929;SDS011;40833;53.238;6.576;2024-03-08T09:50:14;33.90;;;21.60;;
54929;SDS011;40833;53.238;6.576;2024-03-08T09:52:41;39.73;;;23.87;;
54929;SDS011;40833;53.238;6.576;2024-03-08T09:55:09;38.40;;;23.73;;
54929;SDS011;40833;53.238;6.576;2024-03-08T09:57:38;34.80;;;22.67;;
54929;SDS011;40833;53.238;6.576;2024-03-08T10:00:05;38.33;;;22.83;;
54929;SDS011;40833;53.238;6.576;2024-03-08T10:02:49;39.63;;;23.60;;
54929;SDS011;40833;53.238;6.576;2024-03-08T10:05:17;38.83;;;23.47;;
54929;SDS011;40833;53.238;6.576;2024-03-08T10:07:43;35.53;;;23.77;;
54929;SDS011;40833;53.238;6.576;2024-03-08T10:10:09;39.60;;;23.57;;
54929;SDS011;40833;53.238;6.576;2024-03-08T10:12:37;39.53;;;22.80;;
54929;SDS011;40833;53.238;6.576;2024-03-08T10:15:06;35.53;;;23.07;;
54929;SDS011;40833;53.238;6.576;2024-03-08T10:17:34;37.63;;;23.73;;
54929;SDS011;40833;53.238;6.576;2024-03-08T10:20:00;37.83;;;23.73;;
54929;SDS011;40833;53.238;6.576;2024-03-08T10:22:26;35.13;;;22.70;;
54929;SDS011;40833;53.238;6.576;2024-03-08T10:24:51;34.10;;;20.90;;
54929;SDS011;40833;53.238;6.576;2024-03-08T10:27:17;37.17;;;22.37;;
54929;SDS011;40833;53.238;6.576;2024-03-08T10:29:46;36.30;;;22.90;;
54929;SDS011;40833;53.238;6.576;2024-03-08T10:32:13;39.57;;;25.40;;
54929;SDS011;40833;53.238;6.576;2024-03-08T10:34:38;36.20;;;23.13;;
54929;SDS011;40833;53.238;6.576;2024-03-08T10:37:06;38.33;;;22.73;;
54929;SDS011;40833;53.238;6.576;2024-03-08T10:39:36;43.53;;;22.10;;
54929;SDS011;40833;53.238;6.576;2024-03-08T10:42:03;38.13;;;22.33;;
54929;SDS011;40833;53.238;6.576;2024-03-08T10:47:00;35.53;;;22.10;;
54929;SDS011;40833;53.238;6.576;2024-03-08T10:49:39;34.87;;;21.40;;
54929;SDS011;40833;53.238;6.576;2024-03-08T10:52:15;34.53;;;21.03;;
54929;SDS011;40833;53.238;6.576;2024-03-08T10:54:43;36.03;;;23.27;;
54929;SDS011;40833;53.238;6.576;2024-03-08T10:57:10;37.83;;;22.70;;
54929;SDS011;40833;53.238;6.576;2024-03-08T10:59:38;34.93;;;23.80;;
54929;SDS011;40833;53.238;6.576;2024-03-08T11:02:04;38.57;;;23.30;;
54929;SDS011;40833;53.238;6.576;2024-03-08T11:04:31;35.93;;;21.53;;
54929;SDS011;40833;53.238;6.576;2024-03-08T11:07:01;40.97;;;23.70;;
54929;SDS011;40833;53.238;6.576;2024-03-08T11:12:39;40.67;;;23.60;;
54929;SDS011;40833;53.238;6.576;2024-03-08T11:14:47;35.47;;;23.33;;
54929;SDS011;40833;53.238;6.576;2024-03-08T11:17:15;35.83;;;22.97;;
54929;SDS011;40833;53.238;6.576;2024-03-08T11:19:52;35.77;;;23.50;;
54929;SDS011;40833;53.238;6.576;2024-03-08T11:22:27;34.87;;;22.93;;
54929;SDS011;40833;53.238;6.576;2024-03-08T11:25:07;38.63;;;22.83;;
54929;SDS011;40833;53.238;6.576;2024-03-08T11:27:37;34.90;;;23.20;;
54929;SDS011;40833;53.238;6.576;2024-03-08T11:30:04;33.23;;;22.63;;
54929;SDS011;40833;53.238;6.576;2024-03-08T11:32:43;37.60;;;22.87;;
54929;SDS011;40833;53.238;6.576;2024-03-08T11:35:19;35.23;;;22.07;;
54929;SDS011;40833;53.238;6.576;2024-03-08T11:37:46;36.13;;;25.13;;
54929;SDS011;40833;53.238;6.576;2024-03-08T11:40:13;37.47;;;23.43;;
54929;SDS011;40833;53.238;6.576;2024-03-08T11:42:44;34.57;;;23.43;;
54929;SDS011;40833;53.238;6.576;2024-03-08T11:45:14;33.17;;;22.00;;
54929;SDS011;40833;53.238;6.576;2024-03-08T11:47:45;35.77;;;23.47;;
54929;SDS011;40833;53.238;6.576;2024-03-08T11:50:12;38.53;;;24.60;;
54929;SDS011;40833;53.238;6.576;2024-03-08T11:52:38;31.93;;;22.50;;
54929;SDS011;40833;53.238;6.576;2024-03-08T11:55:04;40.23;;;23.97;;
54929;SDS011;40833;53.238;6.576;2024-03-08T11:57:31;33.13;;;21.87;;
54929;SDS011;40833;53.238;6.576;2024-03-08T11:59:57;37.93;;;22.43;;
54929;SDS011;40833;53.238;6.576;2024-03-08T12:02:32;35.00;;;23.57;;
54929;SDS011;40833;53.238;6.576;2024-03-08T12:05:00;35.13;;;23.73;;
54929;SDS011;40833;53.238;6.576;2024-03-08T12:07:31;36.53;;;23.33;;
54929;SDS011;40833;53.238;6.576;2024-03-08T12:10:17;35.87;;;22.40;;
54929;SDS011;40833;53.238;6.576;2024-03-08T12:12:46;30.77;;;22.40;;
54929;SDS011;40833;53.238;6.576;2024-03-08T12:15:17;35.77;;;22.70;;
54929;SDS011;40833;53.238;6.576;2024-03-08T12:17:44;34.33;;;23.40;;
54929;SDS011;40833;53.238;6.576;2024-03-08T12:20:22;33.78;;;21.77;;
54929;SDS011;40833;53.238;6.576;2024-03-08T12:22:55;38.13;;;23.73;;
54929;SDS011;40833;53.238;6.576;2024-03-08T12:25:30;39.33;;;20.57;;
54929;SDS011;40833;53.238;6.576;2024-03-08T12:28:06;33.57;;;22.10;;
54929;SDS011;40833;53.238;6.576;2024-03-08T12:30:35;31.70;;;21.00;;
54929;SDS011;40833;53.238;6.576;2024-03-08T12:33:19;32.43;;;22.00;;
54929;SDS011;40833;53.238;6.576;2024-03-08T12:35:51;31.47;;;21.03;;
54929;SDS011;40833;53.238;6.576;2024-03-08T12:38:23;33.93;;;22.50;;
54929;SDS011;40833;53.238;6.576;2024-03-08T12:40:57;35.47;;;22.63;;
54929;SDS011;40833;53.238;6.576;2024-03-08T12:43:23;32.27;;;21.67;;
54929;SDS011;40833;53.238;6.576;2024-03-08T12:45:49;34.80;;;23.37;;
54929;SDS011;40833;53.238;6.576;2024-03-08T12:48:16;33.70;;;22.77;;
54929;SDS011;40833;53.238;6.576;2024-03-08T12:50:42;38.10;;;20.87;;
54929;SDS011;40833;53.238;6.576;2024-03-08T12:53:10;35.43;;;22.30;;
54929;SDS011;40833;53.238;6.576;2024-03-08T12:55:36;40.20;;;22.87;;
54929;SDS011;40833;53.238;6.576;2024-03-08T12:58:03;33.67;;;22.03;;
54929;SDS011;40833;53.238;6.576;2024-03-08T13:00:32;31.17;;;21.93;;
54929;SDS011;40833;53.238;6.576;2024-03-08T13:03:01;29.93;;;21.40;;
54929;SDS011;40833;53.238;6.576;2024-03-08T13:05:27;28.93;;;19.97;;
54929;SDS011;40833;53.238;6.576;2024-03-08T13:07:54;33.83;;;21.83;;
54929;SDS011;40833;53.238;6.576;2024-03-08T13:10:22;31.10;;;20.23;;
54929;SDS011;40833;53.238;6.576;2024-03-08T13:12:47;30.30;;;20.83;;
54929;SDS011;40833;53.238;6.576;2024-03-08T13:15:13;32.13;;;22.93;;
54929;SDS011;40833;53.238;6.576;2024-03-08T13:17:45;29.75;;;20.13;;
54929;SDS011;40833;53.238;6.576;2024-03-08T13:20:15;29.77;;;20.33;;
54929;SDS011;40833;53.238;6.576;2024-03-08T13:22:45;31.13;;;20.90;;
54929;SDS011;40833;53.238;6.576;2024-03-08T13:25:12;27.53;;;20.40;;
54929;SDS011;40833;53.238;6.576;2024-03-08T13:27:41;27.97;;;16.97;;
54929;SDS011;40833;53.238;6.576;2024-03-08T13:30:10;32.83;;;19.83;;
54929;SDS011;40833;53.238;6.576;2024-03-08T13:32:43;28.83;;;18.20;;
54929;SDS011;40833;53.238;6.576;2024-03-08T13:35:12;28.17;;;19.10;;
54929;SDS011;40833;53.238;6.576;2024-03-08T13:37:42;27.00;;;18.40;;
54929;SDS011;40833;53.238;6.576;2024-03-08T13:40:08;25.57;;;18.20;;
54929;SDS011;40833;53.238;6.576;2024-03-08T13:42:43;28.77;;;19.67;;
54929;SDS011;40833;53.238;6.576;2024-03-08T13:45:09;25.17;;;19.40;;
54929;SDS011;40833;53.238;6.576;2024-03-08T13:47:39;28.83;;;17.93;;
54929;SDS011;40833;53.238;6.576;2024-03-08T13:50:09;25.53;;;17.93;;
54929;SDS011;40833;53.238;6.576;2024-03-08T13:52:37;26.03;;;17.83;;
54929;SDS011;40833;53.238;6.576;2024-03-08T13:55:04;30.13;;;18.00;;
54929;SDS011;40833;53.238;6.576;2024-03-08T13:57:31;27.43;;;17.73;;
54929;SDS011;40833;53.238;6.576;2024-03-08T13:59:57;25.67;;;16.83;;
54929;SDS011;40833;53.238;6.576;2024-03-08T14:02:23;25.53;;;17.60;;
54929;SDS011;40833;53.238;6.576;2024-03-08T14:04:56;27.90;;;17.57;;
54929;SDS011;40833;53.238;6.576;2024-03-08T14:07:22;26.33;;;17.87;;
54929;SDS011;40833;53.238;6.576;2024-03-08T14:09:48;26.40;;;17.27;;
54929;SDS011;40833;53.238;6.576;2024-03-08T14:12:18;27.13;;;17.37;;
54929;SDS011;40833;53.238;6.576;2024-03-08T14:14:44;26.33;;;16.73;;
54929;SDS011;40833;53.238;6.576;2024-03-08T14:17:10;23.10;;;17.67;;
54929;SDS011;40833;53.238;6.576;2024-03-08T14:19:39;21.67;;;16.70;;
54929;SDS011;40833;53.238;6.576;2024-03-08T14:22:04;22.60;;;16.73;;
54929;SDS011;40833;53.238;6.576;2024-03-08T14:24:30;24.30;;;16.33;;
54929;SDS011;40833;53.238;6.576;2024-03-08T14:26:56;21.37;;;16.60;;
54929;SDS011;40833;53.238;6.576;2024-03-08T14:29:27;26.53;;;16.67;;